createdAt,value
2018-04-02T00:01:15.402Z,64.10
2018-04-02T00:03:42.952Z,64.40
2018-04-02T00:06:10.475Z,65.00
2018-04-02T00:08:38.050Z,65.20
2018-04-02T00:11:06.337Z,66.10
2018-04-02T00:13:38.813Z,66.80
2018-04-02T00:16:10.915Z,67.30
2018-04-02T00:18:38.703Z,67.30
2018-04-02T00:21:06.236Z,67.50
2018-04-02T00:23:34.589Z,67.60
2018-04-02T00:26:02.135Z,67.40
2018-04-02T00:28:30.428Z,67.50
2018-04-02T00:30:57.959Z,67.40
2018-04-02T00:33:25.488Z,67.60
2018-04-02T00:35:53.348Z,67.60
2018-04-02T00:38:21.488Z,67.10
2018-04-02T00:40:49.016Z,67.30
2018-04-02T00:43:16.546Z,67.60
2018-04-02T00:45:44.094Z,67.60
2018-04-02T00:48:11.631Z,68.20
2018-04-02T00:50:43.537Z,68.70
2018-04-02T00:53:11.052Z,68.80
2018-04-02T00:55:39.255Z,69.00
2018-04-02T00:58:08.070Z,68.80
2018-04-02T01:00:36.181Z,68.80
2018-04-02T01:03:04.488Z,70.20
2018-04-02T01:05:32.000Z,70.20
2018-04-02T01:08:00.764Z,70.70
2018-04-02T01:20:13.354Z,70.70
2018-04-02T01:22:40.874Z,73.40
2018-04-02T01:25:09.311Z,73.20
2018-04-02T01:27:37.841Z,71.90
2018-04-02T01:30:05.393Z,71.90
2018-04-02T01:32:32.956Z,71.80
2018-04-02T01:35:00.512Z,71.50
2018-04-02T01:37:28.026Z,70.90
2018-04-02T01:39:56.309Z,71.00
2018-04-02T01:42:25.332Z,71.00
2018-04-02T01:44:53.506Z,71.00
2018-04-02T01:47:21.050Z,71.40
2018-04-02T01:49:50.197Z,71.10
2018-04-02T01:52:17.718Z,71.10
2018-04-02T01:54:45.257Z,71.10
2018-04-02T01:57:17.905Z,71.50
2018-04-02T01:59:45.441Z,71.50
2018-04-02T02:02:13.569Z,71.60
2018-04-02T02:04:41.878Z,70.90
2018-04-02T02:07:09.413Z,70.70
2018-04-02T02:09:37.720Z,70.80
2018-04-02T02:12:05.244Z,70.80
2018-04-02T02:14:34.773Z,70.00
2018-04-02T02:17:02.311Z,69.80
2018-04-02T02:19:30.593Z,69.40
2018-04-02T02:21:59.218Z,69.50
2018-04-02T02:24:26.740Z,69.50
2018-04-02T02:26:55.856Z,69.40
2018-04-02T02:29:23.402Z,69.30
2018-04-02T02:31:54.949Z,69.40
2018-04-02T02:34:27.372Z,69.60
2018-04-02T02:36:55.172Z,69.60
2018-04-02T02:39:23.472Z,69.90
2018-04-02T02:41:51.827Z,69.90
2018-04-02T02:44:24.185Z,69.90
2018-04-02T02:46:59.855Z,69.70
2018-04-02T02:49:28.191Z,69.20
2018-04-02T02:51:55.746Z,69.20
2018-04-02T02:54:23.268Z,68.80
2018-04-02T02:56:50.790Z,69.00
2018-04-02T02:59:18.332Z,69.00
2018-04-02T03:01:45.859Z,69.10
2018-04-02T03:04:13.398Z,69.10
2018-04-02T03:06:42.626Z,68.60
2018-04-02T03:09:10.159Z,68.60
2018-04-02T03:11:37.685Z,68.30
2018-04-02T03:14:05.218Z,68.30
2018-04-02T03:16:36.633Z,68.30
2018-04-02T03:19:04.878Z,68.30
2018-04-02T03:21:32.702Z,68.40
2018-04-02T03:24:00.222Z,68.30
2018-04-02T03:26:31.182Z,68.60
2018-04-02T03:28:59.598Z,68.60
2018-04-02T03:31:27.122Z,68.40
2018-04-02T03:33:54.641Z,69.00
2018-04-02T03:36:27.285Z,69.10
2018-04-02T03:38:54.797Z,68.70
2018-04-02T03:41:23.123Z,68.70
2018-04-02T03:43:54.658Z,68.70
2018-04-02T03:46:22.529Z,69.30
2018-04-02T03:48:50.718Z,69.90
2018-04-02T03:51:18.239Z,70.60
2018-04-02T03:53:46.286Z,70.40
2018-04-02T03:56:13.835Z,70.00
2018-04-02T03:58:41.372Z,69.60
2018-04-02T04:01:08.908Z,69.60
2018-04-02T04:03:36.575Z,68.60
2018-04-02T04:06:05.917Z,68.40
2018-04-02T04:08:33.464Z,68.20
2018-04-02T04:11:01.020Z,68.50
2018-04-02T04:13:28.604Z,69.10
2018-04-02T04:15:56.320Z,70.10
2018-04-02T04:18:23.890Z,70.10
2018-04-02T04:20:52.209Z,69.30
2018-04-02T04:23:19.753Z,68.30
2018-04-02T04:25:47.277Z,67.80
2018-04-02T04:28:14.817Z,68.20
2018-04-02T04:30:46.263Z,68.20
2018-04-02T04:33:14.587Z,68.90
2018-04-02T04:35:42.110Z,68.90
2018-04-02T04:38:09.625Z,68.70
2018-04-02T04:40:37.157Z,68.50
2018-04-02T04:43:04.877Z,68.70
2018-04-02T04:45:33.160Z,69.50
2018-04-02T04:48:01.458Z,69.70
2018-04-02T04:50:29.509Z,69.70
2018-04-02T04:52:57.801Z,70.70
2018-04-02T04:55:30.508Z,70.70
2018-04-02T04:57:58.069Z,70.40
2018-04-02T05:00:26.108Z,70.80
2018-04-02T05:02:53.629Z,70.60
2018-04-02T05:05:21.175Z,70.00
2018-04-02T05:07:48.706Z,70.00
2018-04-02T05:10:16.246Z,69.80
2018-04-02T05:12:43.762Z,69.60
2018-04-02T05:15:11.347Z,70.30
2018-04-02T05:17:40.386Z,70.00
2018-04-02T05:20:08.219Z,70.00
2018-04-02T05:22:36.154Z,70.00
2018-04-02T05:25:03.678Z,70.10
2018-04-02T05:27:31.214Z,70.10
2018-04-02T05:29:58.727Z,69.70
2018-04-02T05:32:26.288Z,69.50
2018-04-02T05:34:53.803Z,69.30
2018-04-02T05:37:21.360Z,68.80
2018-04-02T05:39:48.895Z,68.30
2018-04-02T05:42:17.232Z,68.80
2018-04-02T05:44:44.743Z,68.80
2018-04-02T05:47:12.267Z,68.40
2018-04-02T05:49:43.758Z,67.60
2018-04-02T05:52:11.334Z,67.90
2018-04-02T05:54:43.373Z,68.10
2018-04-02T05:57:11.647Z,67.90
2018-04-02T05:59:40.953Z,68.40
2018-04-02T06:02:12.224Z,69.00
2018-04-02T06:04:39.745Z,68.40
2018-04-02T06:07:12.433Z,68.10
2018-04-02T06:09:40.741Z,67.10
2018-04-02T06:12:08.265Z,67.10
2018-04-02T06:14:40.714Z,66.20
2018-04-02T06:17:08.746Z,66.30
2018-04-02T06:19:36.264Z,64.90
2018-04-02T06:22:03.785Z,64.20
2018-04-02T06:34:21.728Z,62.90
2018-04-02T06:36:50.085Z,63.40
2018-04-02T06:39:18.154Z,63.40
2018-04-02T06:41:45.706Z,63.00
2018-04-02T06:44:13.251Z,62.40
2018-04-02T06:59:40.827Z,62.00
2018-04-02T07:02:08.964Z,65.70
2018-04-02T07:04:40.529Z,64.60
2018-04-02T07:20:08.088Z,64.70
2018-04-02T07:35:36.429Z,66.90
2018-04-02T07:38:04.801Z,66.90
2018-04-02T07:40:33.132Z,67.60
2018-04-02T07:43:00.682Z,66.50
2018-04-02T07:45:28.205Z,66.70
2018-04-02T07:47:55.747Z,66.00
2018-04-02T07:50:24.743Z,64.20
2018-04-02T07:52:57.031Z,62.10
2018-04-02T07:55:24.536Z,62.00
2018-04-02T07:57:52.086Z,62.10
2018-04-02T08:00:20.369Z,62.50
2018-04-02T08:02:51.969Z,62.10
2018-04-02T08:05:20.264Z,61.60
2018-04-02T08:07:48.614Z,61.50
2018-04-02T08:10:16.929Z,59.30
2018-04-02T08:12:44.445Z,59.30
2018-04-02T08:15:12.775Z,60.50
2018-04-02T08:17:40.314Z,60.50
2018-04-02T08:20:08.273Z,59.20
2018-04-02T08:22:36.399Z,58.60
2018-04-02T08:25:05.530Z,58.70
2018-04-02T08:27:34.147Z,60.20
2018-04-02T08:30:01.742Z,60.10
2018-04-02T08:32:29.269Z,59.90
2018-04-02T08:34:56.806Z,59.60
2018-04-02T08:37:24.402Z,58.90
2018-04-02T08:39:53.068Z,59.70
2018-04-02T08:42:20.612Z,57.70
2018-04-02T08:44:48.724Z,58.40
2018-04-02T08:47:17.090Z,57.30
2018-04-02T08:49:44.670Z,57.00
2018-04-02T08:52:12.295Z,57.20
2018-04-02T08:54:40.258Z,56.70
2018-04-02T08:57:08.389Z,56.90
2018-04-02T08:59:36.070Z,55.80
2018-04-02T09:02:08.376Z,55.50
2018-04-02T09:04:36.602Z,55.50
2018-04-02T09:07:08.151Z,56.20
2018-04-02T09:09:35.685Z,55.70
2018-04-02T09:12:03.924Z,53.80
2018-04-02T09:14:31.537Z,55.00
2018-04-02T09:19:09.282Z,52.50
2018-04-02T09:21:38.189Z,52.50
2018-04-02T09:24:06.315Z,52.50
2018-04-02T09:26:33.858Z,52.70
2018-04-02T09:29:02.653Z,52.10
2018-04-02T09:31:30.196Z,50.40
2018-04-02T09:33:57.737Z,50.40
2018-04-02T09:36:25.732Z,50.20
2018-04-02T09:38:53.262Z,51.30
2018-04-02T09:41:20.789Z,51.30
2018-04-02T09:43:48.352Z,52.90
2018-04-02T09:56:02.413Z,61.00
2018-04-02T09:58:29.948Z,60.50
2018-04-02T10:01:00.862Z,60.50
2018-04-02T10:03:39.025Z,59.10
2018-04-02T10:06:06.612Z,59.10
2018-04-02T10:08:34.412Z,58.10
2018-04-02T10:11:02.714Z,58.50
2018-04-02T10:13:30.238Z,58.40
2018-04-02T10:15:58.534Z,57.10
2018-04-02T10:18:26.399Z,57.00
2018-04-02T10:20:54.010Z,56.40
2018-04-02T10:23:21.578Z,56.30
2018-04-02T10:25:49.957Z,56.10
2018-04-02T10:28:17.526Z,56.70
2018-04-02T10:30:51.334Z,55.80
2018-04-02T10:33:18.886Z,53.50
2018-04-02T10:35:46.493Z,54.80
2018-04-02T10:51:14.117Z,55.50
2018-04-02T10:53:47.402Z,50.60
2018-04-02T10:56:14.905Z,50.00
2018-04-02T10:58:42.449Z,50.60
2018-04-02T11:01:10.767Z,48.20
2018-04-02T11:03:38.302Z,48.20
2018-04-02T11:06:05.861Z,48.80
2018-04-02T11:08:33.390Z,48.00
2018-04-02T11:11:01.705Z,49.00
2018-04-02T11:13:29.259Z,49.00
2018-04-02T11:15:56.806Z,47.70
2018-04-02T11:18:28.283Z,49.20
2018-04-02T11:20:55.856Z,48.80
2018-04-02T11:23:23.402Z,48.30
2018-04-02T11:25:50.958Z,49.90
2018-04-02T11:28:18.487Z,50.00
2018-04-02T11:30:46.858Z,49.10
2018-04-02T11:33:14.410Z,49.10
2018-04-02T11:35:41.994Z,49.80
2018-04-02T11:38:11.047Z,49.30
2018-04-02T11:40:39.393Z,49.20
2018-04-02T11:43:07.760Z,48.80
2018-04-02T11:45:35.294Z,48.80
2018-04-02T11:48:03.670Z,49.50
2018-04-02T11:50:32.139Z,48.80
2018-04-02T11:53:00.105Z,48.70
2018-04-02T11:55:28.414Z,48.80
2018-04-02T11:57:56.860Z,49.10
2018-04-02T12:00:24.525Z,49.10
2018-04-02T12:02:52.763Z,48.60
2018-04-02T12:05:20.750Z,47.20
2018-04-02T12:07:48.269Z,48.30
2018-04-02T12:10:16.565Z,44.90
2018-04-02T12:25:44.451Z,44.20
2018-04-02T12:28:12.611Z,43.40
2018-04-02T12:30:40.556Z,41.90
2018-04-02T12:33:08.725Z,44.20
2018-04-02T12:35:36.983Z,43.30
2018-04-02T12:38:05.303Z,43.70
2018-04-02T12:40:34.005Z,43.60
2018-04-02T12:43:02.282Z,43.40
2018-04-02T12:46:40.597Z,44.00
2018-04-02T12:49:08.401Z,44.20
2018-04-02T12:51:36.637Z,44.40
2018-04-02T12:54:04.242Z,44.70
2018-04-02T12:56:31.849Z,44.90
2018-04-02T12:59:00.323Z,43.90
2018-04-02T13:01:27.856Z,43.70
2018-04-02T13:03:56.594Z,46.20
2018-04-02T13:06:24.323Z,46.20
2018-04-02T13:08:51.857Z,45.90
2018-04-02T13:11:24.631Z,44.30
2018-04-02T13:13:52.171Z,44.80
2018-04-02T13:16:20.539Z,44.20
2018-04-02T13:18:48.077Z,46.00
2018-04-02T13:21:15.619Z,45.50
2018-04-02T13:23:47.108Z,45.40
2018-04-02T13:26:14.704Z,44.60
2018-04-02T13:28:46.742Z,44.70
2018-04-02T13:31:14.306Z,44.90
2018-04-02T13:33:42.107Z,43.80
2018-04-02T13:36:10.419Z,44.50
2018-04-02T13:38:38.003Z,44.50
2018-04-02T13:41:05.994Z,44.90
2018-04-02T13:43:33.629Z,43.20
2018-04-02T13:48:05.537Z,42.90
2018-04-02T13:50:33.041Z,42.20
2018-04-02T13:53:04.651Z,42.20
2018-04-02T13:55:33.124Z,43.70
2018-04-02T13:58:01.573Z,44.10
2018-04-02T14:00:29.103Z,44.10
2018-04-02T14:02:56.631Z,43.80
2018-04-02T14:05:24.215Z,44.30
2018-04-02T14:07:52.504Z,44.40
2018-04-02T14:10:20.051Z,44.40
2018-04-02T14:12:48.367Z,44.70
2018-04-02T14:15:15.906Z,44.10
2018-04-02T14:17:43.445Z,45.10
2018-04-02T14:20:11.875Z,46.10
2018-04-02T14:22:43.436Z,46.00
2018-04-02T14:25:15.054Z,45.70
2018-04-02T14:27:42.993Z,45.30
2018-04-02T14:30:12.017Z,44.80
2018-04-02T14:32:40.069Z,44.80
2018-04-02T14:35:08.361Z,46.40
2018-04-02T14:37:35.909Z,46.40
2018-04-02T14:40:04.198Z,45.70
2018-04-02T14:42:32.178Z,45.70
2018-04-02T14:44:59.758Z,46.00
2018-04-02T14:47:27.308Z,46.40
2018-04-02T14:49:58.923Z,45.40
2018-04-02T14:52:27.250Z,45.10
2018-04-02T14:54:54.777Z,45.00
2018-04-02T14:57:22.315Z,45.30
2018-04-02T14:59:50.626Z,45.50
2018-04-02T15:02:18.836Z,45.60
2018-04-02T15:04:46.399Z,45.40
2018-04-02T15:07:13.952Z,45.10
2018-04-02T15:09:41.491Z,45.60
2018-04-02T15:12:09.034Z,45.70
2018-04-02T15:14:36.576Z,46.40
2018-04-02T15:17:05.873Z,46.20
2018-04-02T15:19:34.185Z,46.70
2018-04-02T15:22:01.710Z,46.60
2018-04-02T15:24:30.016Z,46.40
2018-04-02T15:26:57.545Z,46.40
2018-04-02T15:29:25.850Z,46.90
2018-04-02T15:31:53.386Z,46.90
2018-04-02T15:34:22.287Z,46.40
2018-04-02T15:36:49.850Z,46.30
2018-04-02T15:39:17.370Z,45.70
2018-04-02T15:41:44.892Z,45.70
2018-04-02T15:44:12.455Z,46.60
2018-04-02T15:46:40.007Z,46.80
2018-04-02T15:49:07.562Z,46.80
2018-04-02T15:51:35.106Z,46.20
2018-04-02T15:54:02.683Z,46.10
2018-04-02T15:56:30.244Z,46.10
2018-04-02T15:58:57.882Z,45.90
2018-04-02T16:01:26.206Z,46.00
2018-04-02T16:03:53.752Z,45.90
2018-04-02T16:06:21.302Z,46.10
2018-04-02T16:11:23.688Z,45.60
2018-04-02T16:13:51.962Z,46.50
2018-04-02T16:16:19.571Z,46.00
2018-04-02T16:18:50.422Z,46.60
2018-04-02T16:21:18.037Z,46.60
2018-04-02T16:23:45.608Z,46.80
2018-04-02T16:26:13.436Z,47.80
2018-04-02T16:28:43.241Z,48.00
2018-04-02T16:31:11.570Z,47.80
2018-04-02T16:33:40.390Z,47.80
2018-04-02T16:36:07.895Z,47.90
2018-04-02T16:38:35.424Z,48.20
2018-04-02T16:41:03.845Z,49.20
2018-04-02T16:43:31.414Z,49.20
2018-04-02T16:45:58.944Z,49.30
2018-04-02T16:48:26.479Z,49.90
2018-04-02T16:50:54.884Z,49.70
2018-04-02T16:53:22.778Z,49.70
2018-04-02T16:55:50.329Z,49.60
2018-04-02T16:58:17.862Z,49.90
2018-04-02T17:00:46.167Z,50.50
2018-04-02T17:03:13.702Z,50.50
2018-04-02T17:05:41.995Z,50.80
2018-04-02T17:08:09.522Z,50.80
2018-04-02T17:10:37.820Z,51.00
2018-04-02T17:13:05.405Z,51.00
2018-04-02T17:15:33.784Z,51.20
2018-04-02T17:18:01.391Z,51.10
2018-04-02T17:20:29.006Z,51.00
2018-04-02T17:22:56.584Z,52.70
2018-04-02T17:25:24.388Z,53.10
2018-04-02T17:27:52.714Z,54.80
2018-04-02T17:30:20.292Z,54.80
2018-04-02T17:32:47.869Z,55.50
2018-04-02T17:35:16.186Z,56.50
2018-04-02T17:37:43.725Z,56.50
2018-04-02T17:40:12.041Z,57.00
2018-04-02T17:42:39.582Z,56.90
2018-04-02T17:45:07.123Z,57.60
2018-04-02T17:47:35.428Z,58.70
2018-04-02T17:50:03.869Z,58.00
2018-04-02T17:52:31.460Z,58.40
2018-04-02T17:54:59.004Z,58.40
2018-04-02T17:57:27.342Z,59.10
2018-04-02T17:59:54.885Z,59.00
2018-04-02T18:02:22.410Z,59.30
2018-04-02T18:04:50.746Z,59.50
2018-04-02T18:07:18.283Z,59.50
2018-04-02T18:09:45.810Z,59.70
2018-04-02T18:12:14.126Z,60.00
2018-04-02T18:14:41.664Z,60.00
2018-04-02T18:17:09.224Z,60.00
2018-04-02T18:19:36.843Z,60.00
2018-04-02T18:22:04.923Z,60.30
2018-04-02T18:24:33.266Z,60.40
2018-04-02T18:27:01.531Z,60.30
2018-04-02T18:29:29.065Z,60.70
2018-04-02T18:31:56.611Z,61.40
2018-04-02T18:34:24.898Z,61.80
2018-04-02T18:36:52.449Z,61.80
2018-04-02T18:39:20.747Z,63.30
2018-04-02T18:54:48.326Z,63.20
2018-04-02T18:57:19.532Z,71.50
2018-04-02T18:59:47.071Z,70.40
2018-04-02T19:02:15.449Z,70.30
2018-04-02T19:04:43.776Z,70.40
2018-04-02T19:07:11.338Z,70.30
2018-04-02T19:09:38.883Z,69.80
2018-04-02T19:12:07.013Z,70.80
2018-04-02T19:14:34.576Z,70.80
2018-04-02T19:17:02.886Z,71.10
2018-04-02T19:19:30.441Z,70.40
2018-04-02T19:21:58.627Z,70.90
2018-04-02T19:24:26.845Z,70.40
2018-04-02T19:26:55.907Z,70.90
2018-04-02T19:29:27.794Z,71.00
2018-04-02T19:31:55.324Z,70.80
2018-04-02T19:34:22.889Z,70.40
2018-04-02T19:36:50.451Z,69.90
2018-04-02T19:39:18.038Z,69.70
2018-04-02T19:41:45.607Z,69.30
2018-04-02T19:44:13.139Z,69.00
2018-04-02T19:46:40.697Z,69.70
2018-04-02T19:49:08.249Z,69.40
2018-04-02T19:51:36.213Z,69.40
2018-04-02T19:54:03.829Z,68.60
2018-04-02T19:56:31.945Z,68.80
2018-04-02T19:58:59.494Z,68.40
2018-04-02T20:01:27.027Z,69.20
2018-04-02T20:03:55.437Z,69.90
2018-04-02T20:06:23.110Z,69.90
2018-04-02T20:08:50.689Z,70.00
2018-04-02T20:11:19.182Z,70.40
2018-04-02T20:13:47.852Z,70.40
2018-04-02T20:16:15.473Z,70.30
2018-04-02T20:18:43.781Z,72.40
2018-04-02T20:21:11.331Z,73.00
2018-04-02T20:23:38.874Z,73.20
2018-04-02T20:26:07.214Z,73.20
2018-04-02T20:28:38.607Z,72.50
2018-04-02T20:31:06.150Z,72.20
2018-04-02T20:33:34.461Z,72.10
2018-04-02T20:36:02.016Z,72.10
2018-04-02T20:38:29.551Z,72.30
2018-04-02T20:40:57.878Z,71.70
2018-04-02T20:43:25.404Z,71.70
2018-04-02T20:45:52.996Z,70.70
2018-04-02T20:48:21.204Z,70.60
2018-04-02T20:50:49.530Z,69.10
2018-04-02T20:53:17.129Z,69.00
2018-04-02T20:55:44.734Z,67.90
2018-04-02T20:58:12.298Z,66.30
2018-04-02T21:00:39.862Z,65.70
2018-04-02T21:03:07.419Z,65.00
2018-04-02T21:05:34.964Z,65.00
2018-04-02T21:08:03.257Z,63.50
2018-04-02T21:10:30.808Z,63.50
2018-04-02T21:12:58.359Z,62.80
2018-04-02T21:15:27.545Z,63.60
2018-04-02T21:17:55.909Z,63.70
2018-04-02T21:20:24.018Z,63.30
2018-04-02T21:22:52.371Z,62.60
2018-04-02T21:25:19.929Z,62.70
2018-04-02T21:27:47.440Z,62.40
2018-04-02T21:30:14.997Z,62.30
2018-04-02T21:32:42.504Z,62.40
2018-04-02T21:35:10.038Z,62.60
2018-04-02T21:37:38.162Z,62.50
2018-04-02T21:40:06.459Z,63.00
2018-04-02T21:42:34.002Z,63.20
2018-04-02T21:45:01.549Z,63.90
2018-04-02T21:47:29.909Z,62.20
2018-04-02T21:49:57.397Z,62.20
2018-04-02T21:52:25.870Z,62.00
2018-04-02T21:54:54.151Z,61.50
2018-04-02T21:57:22.432Z,60.30
2018-04-02T21:59:54.948Z,60.50
2018-04-02T22:02:22.467Z,60.50
2018-04-02T22:04:50.760Z,59.50
2018-04-02T22:07:20.897Z,59.50
2018-04-02T22:09:48.426Z,60.00
2018-04-02T22:12:17.667Z,60.00
2018-04-02T22:14:45.208Z,59.90
2018-04-02T22:17:12.741Z,59.50
2018-04-02T22:19:41.056Z,59.20
2018-04-02T22:22:08.582Z,59.20
2018-04-02T22:24:36.141Z,59.60
2018-04-02T22:27:04.441Z,59.80
2018-04-02T22:29:31.961Z,59.70
2018-04-02T22:32:00.292Z,59.50
2018-04-02T22:34:27.814Z,59.40
2018-04-02T22:36:56.103Z,59.50
2018-04-02T22:39:23.625Z,59.50
2018-04-02T22:41:51.207Z,59.70
2018-04-02T22:44:19.477Z,60.00
2018-04-02T22:46:47.036Z,60.00
2018-04-02T22:59:00.354Z,64.90
2018-04-02T23:01:27.857Z,64.90
2018-04-02T23:03:55.662Z,64.70
2018-04-02T23:06:23.940Z,64.30
2018-04-02T23:08:52.235Z,64.40
2018-04-02T23:11:19.760Z,64.30
2018-04-02T23:13:47.293Z,64.40
2018-04-02T23:16:14.809Z,64.90
2018-04-02T23:18:42.333Z,63.90
2018-04-02T23:21:09.867Z,64.20
2018-04-02T23:23:37.365Z,64.70
2018-04-02T23:26:05.657Z,64.80
2018-04-02T23:28:34.793Z,65.20
2018-04-02T23:31:02.391Z,65.20
2018-04-02T23:33:29.974Z,65.10
2018-04-02T23:35:57.500Z,65.30
2018-04-02T23:38:25.425Z,65.80
2018-04-02T23:40:52.948Z,65.80
2018-04-02T23:43:21.247Z,65.80
2018-04-02T23:45:48.772Z,65.60
2018-04-02T23:48:16.332Z,66.60
2018-04-02T23:50:43.858Z,67.00
2018-04-02T23:53:11.399Z,67.10
2018-04-02T23:55:39.381Z,67.20
2018-04-02T23:58:06.927Z,67.40
